Time;durP1;ratioP1;P1;durP2;ratioP2;P2;SDS_P1;SDS_P2;PMS_P1;PMS_P2;Temp;Humidity;BMP_temperature;BMP_pressure;BME280_temperature;BME280_humidity;BME280_pressure;Samples;Min_cycle;Max_cycle;Signal;HPM_P1;HPM_P2
2023/01/29 00:02:04;;;;;;;48.93;28.27;;;0.80;99.90;;;;;;4916873;29;20263;-67
2023/01/29 00:04:30;;;;;;;49.33;27.57;;;0.90;99.90;;;;;;4918646;29;20189;-66
2023/01/29 00:06:56;;;;;;;51.70;30.20;;;0.90;99.90;;;;;;4929195;29;20278;-67
2023/01/29 00:09:21;;;;;;;49.60;26.77;;;0.90;99.90;;;;;;4927710;29;20985;-67
2023/01/29 00:11:47;;;;;;;49.17;27.77;;;0.90;99.90;;;;;;4925869;29;20658;-67
2023/01/29 00:14:12;;;;;;;48.93;27.50;;;0.90;99.90;;;;;;4924404;29;20545;-67
2023/01/29 00:16:38;;;;;;;44.27;24.30;;;0.90;99.90;;;;;;4922496;29;20190;-67
2023/01/29 00:19:04;;;;;;;53.07;29.00;;;0.90;99.90;;;;;;4920819;29;20191;-67
2023/01/29 00:21:30;;;;;;;48.87;28.80;;;0.90;99.90;;;;;;4919289;29;20568;-67
2023/01/29 00:23:57;;;;;;;49.50;27.23;;;0.90;99.90;;;;;;4917384;29;20239;-67
2023/01/29 00:26:23;;;;;;;56.73;30.07;;;0.80;99.90;;;;;;4916035;29;20439;-67
2023/01/29 00:28:48;;;;;;;53.20;29.17;;;0.80;99.90;;;;;;4920043;29;20432;-67
2023/01/29 00:31:18;;;;;;;61.40;30.17;;;0.80;99.90;;;;;;4921550;29;20546;-67
2023/01/29 00:33:43;;;;;;;53.10;30.43;;;0.80;99.90;;;;;;4923451;29;20310;-66
2023/01/29 00:36:12;;;;;;;48.10;27.60;;;0.80;99.90;;;;;;4925296;29;20518;-66
2023/01/29 00:38:38;;;;;;;48.87;27.57;;;0.80;99.90;;;;;;4926586;29;20259;-66
2023/01/29 00:46:36;;;;;;;51.67;28.60;;;0.70;99.90;;;;;;4924136;29;20477;-67
2023/01/29 00:49:03;;;;;;;59.63;29.90;;;0.80;99.90;;;;;;4922073;29;20917;-67
2023/01/29 00:51:29;;;;;;;48.80;27.17;;;0.70;99.90;;;;;;4920430;29;20469;-67
2023/01/29 00:53:57;;;;;;;57.37;28.27;;;0.70;99.90;;;;;;4918975;29;20930;-67
2023/01/29 00:56:29;;;;;;;53.17;28.80;;;0.70;99.90;;;;;;4919608;29;20559;-67
2023/01/29 00:58:55;;;;;;;50.30;28.30;;;0.70;99.90;;;;;;4921504;29;20482;-68
2023/01/29 01:04:09;;;;;;;54.43;28.43;;;0.70;99.90;;;;;;4928873;29;20477;-72
2023/01/29 01:06:39;;;;;;;55.60;28.10;;;0.70;99.90;;;;;;4927005;29;21052;-71
2023/01/29 01:11:50;;;;;;;50.43;27.97;;;0.70;99.90;;;;;;4925242;29;20458;-71
2023/01/29 01:14:16;;;;;;;55.07;30.00;;;0.60;99.90;;;;;;4923776;29;20477;-71
2023/01/29 01:16:43;;;;;;;46.43;26.17;;;0.60;99.90;;;;;;4922307;29;20436;-71
2023/01/29 01:19:09;;;;;;;53.77;28.93;;;0.60;99.90;;;;;;4918922;29;20463;-71
2023/01/29 01:21:35;;;;;;;53.20;27.83;;;0.60;99.90;;;;;;4917470;29;20471;-71
2023/01/29 01:24:00;;;;;;;54.53;29.10;;;0.60;99.90;;;;;;4918429;29;20279;-72
2023/01/29 01:26:26;;;;;;;53.57;29.43;;;0.60;99.90;;;;;;4920550;29;20184;-72
2023/01/29 01:28:52;;;;;;;51.70;28.53;;;0.60;99.90;;;;;;4923597;29;20550;-71
2023/01/29 01:31:17;;;;;;;46.37;28.13;;;0.60;99.90;;;;;;4928889;29;20271;-71
2023/01/29 01:33:43;;;;;;;56.17;30.57;;;0.60;99.90;;;;;;4928962;29;20278;-71
2023/01/29 01:36:09;;;;;;;56.57;28.67;;;0.60;99.90;;;;;;4927578;29;20187;-71
2023/01/29 01:38:43;;;;;;;47.77;26.70;;;0.60;99.90;;;;;;4925757;29;20234;-71
2023/01/29 01:41:12;;;;;;;49.40;26.37;;;0.60;99.90;;;;;;4931971;29;20187;-71
2023/01/29 01:43:59;;;;;;;50.27;26.73;;;0.60;99.90;;;;;;4933994;29;20450;-71
2023/01/29 01:46:30;;;;;;;53.17;31.00;;;0.60;99.90;;;;;;4920018;29;20432;-71
2023/01/29 01:49:17;;;;;;;52.23;29.77;;;0.60;99.90;;;;;;4922421;29;20455;-71
2023/01/29 01:51:47;;;;;;;50.50;28.70;;;0.60;99.90;;;;;;4932281;29;20482;-71
2023/01/29 01:54:18;;;;;;;57.17;30.27;;;0.60;99.90;;;;;;4933579;29;20923;-71
2023/01/29 01:56:48;;;;;;;47.57;27.20;;;0.60;99.90;;;;;;4929874;29;20535;-71
2023/01/29 01:59:17;;;;;;;57.07;30.37;;;0.70;99.90;;;;;;4928875;29;20430;-71
2023/01/29 02:01:48;;;;;;;54.40;29.30;;;0.60;99.90;;;;;;4918400;29;20480;-71
2023/01/29 02:10:03;;;;;;;64.20;29.97;;;0.60;99.90;;;;;;4926685;29;20880;-70
2023/01/29 02:12:30;;;;;;;52.63;27.50;;;0.60;99.90;;;;;;4934422;29;20529;-69
2023/01/29 02:14:56;;;;;;;50.43;26.53;;;0.60;99.90;;;;;;4936241;29;20877;-68
2023/01/29 02:17:22;;;;;;;51.60;29.13;;;0.60;99.90;;;;;;4935983;29;20530;-69
2023/01/29 02:20:07;;;;;;;54.10;28.70;;;0.60;99.90;;;;;;4934480;29;20513;-69
2023/01/29 02:22:54;;;;;;;51.40;27.50;;;0.50;99.90;;;;;;4932437;29;20273;-68
2023/01/29 02:25:46;;;;;;;51.33;28.13;;;0.50;99.90;;;;;;4924112;29;20846;-69
2023/01/29 02:28:40;;;;;;;52.87;28.33;;;0.50;99.90;;;;;;4925710;29;20427;-69
2023/01/29 02:31:11;;;;;;;58.47;28.93;;;0.50;99.90;;;;;;4926122;29;20837;-68
2023/01/29 02:33:40;;;;;;;55.40;28.80;;;0.50;99.90;;;;;;4924554;29;20451;-68
2023/01/29 02:36:42;;;;;;;53.50;28.67;;;0.60;99.90;;;;;;4922907;29;20522;-68
2023/01/29 02:39:13;;;;;;;52.40;28.90;;;0.50;99.90;;;;;;4933186;29;20444;-68
2023/01/29 02:41:42;;;;;;;53.33;30.00;;;0.50;99.90;;;;;;4918890;29;20440;-68
2023/01/29 02:44:22;;;;;;;50.13;27.63;;;0.50;99.90;;;;;;4918023;29;20443;-68
2023/01/29 02:47:03;;;;;;;56.40;30.00;;;0.60;99.90;;;;;;4919485;29;20547;-68
2023/01/29 02:49:39;;;;;;;54.00;29.80;;;0.60;99.90;;;;;;4921102;29;20439;-70
2023/01/29 02:52:25;;;;;;;56.23;27.90;;;0.60;99.90;;;;;;4930146;29;20485;-70
2023/01/29 02:55:06;;;;;;;46.13;27.97;;;0.60;99.90;;;;;;4924929;29;20445;-71
2023/01/29 02:57:36;;;;;;;54.10;27.90;;;0.60;99.90;;;;;;4926784;29;20934;-71
2023/01/29 03:00:14;;;;;;;56.27;29.03;;;0.60;99.90;;;;;;4928253;29;20502;-71
2023/01/29 03:03:00;;;;;;;58.00;29.20;;;0.50;99.90;;;;;;4923058;29;20432;-71
2023/01/29 03:06:01;;;;;;;55.67;29.63;;;0.50;99.90;;;;;;4920667;29;20443;-70
2023/01/29 03:08:41;;;;;;;54.43;28.50;;;0.50;99.90;;;;;;4918700;29;20443;-70
2023/01/29 03:11:12;;;;;;;52.97;26.83;;;0.60;99.90;;;;;;4931949;29;20470;-70
2023/01/29 03:13:46;;;;;;;63.17;30.83;;;0.50;99.90;;;;;;4934007;29;20447;-70
2023/01/29 03:16:27;;;;;;;55.77;28.33;;;0.50;99.90;;;;;;4932256;29;20423;-70
2023/01/29 03:18:59;;;;;;;52.80;26.70;;;0.60;99.90;;;;;;4930315;29;20718;-71
2023/01/29 03:33:26;;;;;;;66.03;30.33;;;0.70;99.90;;;;;;4875994;29;20480;-68
2023/01/29 03:36:01;;;;;;;63.60;31.23;;;0.60;99.90;;;;;;4889352;29;20452;-68
2023/01/29 03:38:28;;;;;;;54.53;29.87;;;0.60;99.90;;;;;;4923040;29;20792;-68
2023/01/29 05:31:19;;;;;;;63.47;34.20;;;1.20;99.90;;;;;;5518209;23;20517;-71
2023/01/29 05:33:45;;;;;;;65.20;33.10;;;1.30;99.90;;;;;;4922678;29;20447;-72
2023/01/29 05:36:10;;;;;;;74.37;36.03;;;1.30;99.90;;;;;;4924452;29;20669;-71
2023/01/29 05:38:36;;;;;;;68.10;36.53;;;1.30;99.90;;;;;;4926316;29;20207;-70
2023/01/29 05:41:01;;;;;;;62.87;34.87;;;1.30;99.90;;;;;;4928209;29;20650;-70
2023/01/29 05:43:27;;;;;;;71.97;34.80;;;1.40;99.90;;;;;;4929687;29;20191;-70
2023/01/29 05:45:59;;;;;;;73.47;34.87;;;1.40;99.90;;;;;;4931323;29;20190;-70
2023/01/29 05:48:27;;;;;;;74.47;34.10;;;1.40;99.90;;;;;;4933208;29;20187;-72
2023/01/29 05:50:53;;;;;;;73.30;31.50;;;1.40;99.90;;;;;;4920212;29;20465;-70
2023/01/29 05:53:18;;;;;;;76.13;34.60;;;1.40;99.90;;;;;;4936060;29;20831;-70
2023/01/29 05:55:47;;;;;;;65.47;32.93;;;1.50;99.90;;;;;;4936423;29;20186;-70
2023/01/29 05:58:13;;;;;;;67.20;33.20;;;1.50;99.90;;;;;;4920685;29;20326;-71
2023/01/29 06:00:39;;;;;;;57.60;30.47;;;1.60;99.90;;;;;;4922247;29;20425;-71
2023/01/29 06:03:05;;;;;;;62.37;32.43;;;1.60;99.90;;;;;;4924102;29;20645;-70
2023/01/29 06:05:31;;;;;;;61.97;31.50;;;1.60;99.90;;;;;;4925740;29;20419;-71
2023/01/29 06:07:56;;;;;;;64.13;31.53;;;1.70;99.90;;;;;;4927187;29;20233;-73
2023/01/29 06:10:22;;;;;;;68.03;33.40;;;1.60;99.90;;;;;;4929453;29;20186;-71
2023/01/29 06:12:47;;;;;;;60.60;32.47;;;1.70;99.90;;;;;;4924709;29;20227;-71
2023/01/29 06:15:18;;;;;;;64.37;31.70;;;1.70;99.90;;;;;;4922409;29;20194;-71
2023/01/29 06:17:44;;;;;;;63.63;29.97;;;1.70;99.90;;;;;;4920956;29;20241;-70
2023/01/29 06:20:10;;;;;;;61.83;31.70;;;1.60;99.90;;;;;;4919142;29;20518;-72
2023/01/29 06:22:35;;;;;;;61.50;30.10;;;1.70;99.90;;;;;;4916189;29;20779;-71
2023/01/29 06:25:01;;;;;;;51.10;27.30;;;1.70;99.90;;;;;;4934008;29;20515;-71
2023/01/29 06:27:27;;;;;;;57.83;29.37;;;1.70;99.90;;;;;;4933286;29;20187;-71
2023/01/29 06:29:52;;;;;;;51.63;27.37;;;1.70;99.90;;;;;;4931638;29;20181;-70
2023/01/29 06:32:18;;;;;;;65.50;28.50;;;1.70;99.90;;;;;;4928077;29;20829;-70
2023/01/29 06:34:43;;;;;;;51.33;24.00;;;1.70;99.90;;;;;;4926335;29;20274;-73
2023/01/29 06:37:09;;;;;;;54.30;28.80;;;1.70;99.90;;;;;;4924830;29;20649;-73
2023/01/29 06:39:34;;;;;;;51.67;27.83;;;1.90;99.90;;;;;;4923421;29;20267;-72
2023/01/29 06:42:00;;;;;;;53.93;27.43;;;2.00;99.90;;;;;;4921802;29;20198;-72
2023/01/29 06:44:26;;;;;;;62.80;31.00;;;1.90;99.90;;;;;;4920347;29;20189;-73
2023/01/29 06:46:51;;;;;;;57.27;27.87;;;1.80;99.90;;;;;;4918696;29;20624;-72
2023/01/29 06:49:17;;;;;;;54.93;28.70;;;1.80;99.90;;;;;;4916791;29;20183;-72
2023/01/29 06:51:42;;;;;;;60.20;30.17;;;1.80;99.90;;;;;;4917842;29;20332;-71
2023/01/29 06:54:09;;;;;;;48.40;26.10;;;1.80;99.90;;;;;;4919451;29;20189;-72
2023/01/29 06:56:34;;;;;;;51.27;27.00;;;1.80;99.90;;;;;;4920835;29;20187;-70
2023/01/29 06:59:00;;;;;;;50.77;27.23;;;1.90;99.90;;;;;;4922663;29;20789;-69
2023/01/29 07:01:26;;;;;;;50.03;26.73;;;1.80;99.90;;;;;;4924240;29;20175;-71
2023/01/29 07:03:51;;;;;;;56.13;28.83;;;1.80;99.90;;;;;;4925940;29;20677;-74
2023/01/29 07:06:18;;;;;;;54.00;28.07;;;1.80;99.90;;;;;;4927874;29;20272;-74
2023/01/29 07:08:43;;;;;;;52.93;27.67;;;1.90;99.90;;;;;;4929501;29;20196;-74
2023/01/29 07:11:09;;;;;;;51.20;25.70;;;1.90;99.90;;;;;;4931042;29;20509;-74
2023/01/29 07:13:35;;;;;;;58.43;29.33;;;1.90;99.90;;;;;;4932973;29;20211;-74
2023/01/29 07:16:02;;;;;;;61.83;27.83;;;1.90;99.90;;;;;;4931478;29;20435;-72
2023/01/29 07:18:28;;;;;;;59.10;27.63;;;1.90;99.90;;;;;;4917099;29;20191;-72
2023/01/29 07:20:55;;;;;;;59.43;27.80;;;1.90;99.90;;;;;;4918967;29;20848;-73
2023/01/29 07:23:21;;;;;;;56.97;27.70;;;1.90;99.90;;;;;;4920633;29;20447;-74
2023/01/29 07:25:48;;;;;;;51.53;25.70;;;1.90;99.90;;;;;;4927373;29;20434;-73
2023/01/29 07:28:14;;;;;;;64.00;29.73;;;1.90;99.90;;;;;;4923773;29;20191;-73
2023/01/29 07:30:40;;;;;;;53.30;27.30;;;2.00;99.90;;;;;;4925046;29;20468;-72
2023/01/29 07:33:08;;;;;;;57.93;28.57;;;2.00;99.90;;;;;;4927030;29;20471;-73
2023/01/29 07:35:40;;;;;;;46.07;25.03;;;2.10;99.90;;;;;;4928779;29;20304;-73
2023/01/29 07:38:07;;;;;;;52.80;27.40;;;2.10;99.90;;;;;;4919943;29;20448;-73
2023/01/29 07:40:33;;;;;;;58.73;28.30;;;2.10;99.90;;;;;;4918166;29;20517;-73
2023/01/29 07:43:00;;;;;;;57.70;29.60;;;2.10;99.90;;;;;;4916478;29;20535;-71
2023/01/29 07:45:26;;;;;;;58.80;27.00;;;2.00;99.90;;;;;;4916669;29;20546;-71
2023/01/29 07:47:53;;;;;;;47.40;25.40;;;2.00;99.90;;;;;;4918167;29;20526;-72
2023/01/29 07:50:19;;;;;;;54.47;27.53;;;2.00;99.90;;;;;;4925036;29;20490;-71
2023/01/29 07:52:44;;;;;;;53.73;27.27;;;2.00;99.90;;;;;;4928951;29;21014;-71
2023/01/29 07:55:10;;;;;;;54.67;27.90;;;2.10;99.90;;;;;;4926869;29;20195;-71
2023/01/29 07:57:35;;;;;;;56.00;27.10;;;2.20;99.90;;;;;;4924260;29;20191;-71
2023/01/29 08:00:01;;;;;;;59.07;28.93;;;2.30;99.90;;;;;;4926443;29;20179;-71
2023/01/29 08:02:26;;;;;;;47.80;25.80;;;2.30;99.90;;;;;;4928314;29;20191;-72
2023/01/29 08:04:52;;;;;;;58.10;28.20;;;2.30;99.90;;;;;;4921515;29;20356;-73
2023/01/29 08:07:17;;;;;;;59.13;28.63;;;2.30;99.90;;;;;;4918074;29;20202;-71
2023/01/29 08:09:43;;;;;;;53.47;27.57;;;2.30;99.90;;;;;;4916821;29;20188;-69
2023/01/29 08:12:08;;;;;;;62.77;27.77;;;2.30;99.90;;;;;;4915760;29;20210;-70
2023/01/29 08:14:34;;;;;;;55.40;28.00;;;2.30;99.90;;;;;;4917349;29;20203;-70
2023/01/29 08:17:00;;;;;;;54.97;27.40;;;2.30;99.90;;;;;;4918768;29;20223;-71
2023/01/29 08:19:25;;;;;;;58.07;28.13;;;2.30;99.90;;;;;;4920585;29;20194;-71
2023/01/29 08:21:51;;;;;;;49.10;27.87;;;2.40;99.90;;;;;;4922505;29;20200;-70
2023/01/29 08:24:16;;;;;;;48.43;26.20;;;2.30;99.90;;;;;;4924122;29;20645;-71
2023/01/29 08:26:42;;;;;;;46.53;26.57;;;2.40;99.90;;;;;;4925836;29;20191;-71
2023/01/29 08:29:07;;;;;;;46.40;25.80;;;2.40;99.90;;;;;;4927321;29;20234;-71
2023/01/29 08:31:33;;;;;;;59.17;28.77;;;2.40;99.90;;;;;;4928838;29;20263;-71
2023/01/29 08:33:59;;;;;;;52.80;25.40;;;2.40;99.90;;;;;;4930211;29;20226;-69
2023/01/29 08:36:25;;;;;;;45.00;25.70;;;2.40;99.90;;;;;;4931264;29;20535;-69
2023/01/29 08:38:50;;;;;;;57.30;29.90;;;2.50;99.90;;;;;;4933419;29;20198;-69
2023/01/29 08:41:16;;;;;;;50.23;25.90;;;2.40;99.90;;;;;;4932599;29;20201;-69
2023/01/29 08:43:41;;;;;;;48.70;26.77;;;2.40;99.90;;;;;;4930759;29;20191;-69
2023/01/29 08:46:07;;;;;;;47.17;25.00;;;2.40;99.90;;;;;;4929104;29;20209;-70
2023/01/29 08:48:33;;;;;;;54.27;27.80;;;2.40;99.90;;;;;;4929043;29;20667;-69
2023/01/29 08:51:01;;;;;;;54.67;29.27;;;2.40;99.90;;;;;;4931870;29;20509;-70
2023/01/29 08:53:27;;;;;;;56.23;29.33;;;2.40;99.90;;;;;;4930634;29;20488;-70
2023/01/29 08:55:53;;;;;;;50.93;26.53;;;2.50;99.90;;;;;;4925850;29;20434;-70
2023/01/29 08:58:19;;;;;;;47.50;27.70;;;2.50;99.90;;;;;;4923941;29;20444;-71
2023/01/29 09:00:44;;;;;;;53.23;29.80;;;2.60;99.90;;;;;;4933461;29;20630;-69
2023/01/29 09:03:10;;;;;;;59.23;28.53;;;2.60;99.90;;;;;;4935098;29;20598;-71
2023/01/29 09:05:37;;;;;;;53.93;27.73;;;2.50;99.90;;;;;;4936659;29;20200;-71
2023/01/29 09:08:03;;;;;;;57.53;28.67;;;2.50;99.90;;;;;;4935788;29;20182;-71
2023/01/29 09:10:29;;;;;;;49.53;27.03;;;2.50;99.90;;;;;;4934122;29;20804;-70
2023/01/29 09:12:55;;;;;;;49.90;27.87;;;2.50;99.90;;;;;;4932254;29;20489;-70
2023/01/29 09:15:20;;;;;;;49.87;25.80;;;2.50;99.90;;;;;;4930969;29;20652;-71
2023/01/29 09:17:48;;;;;;;55.90;28.67;;;2.60;99.90;;;;;;4929260;29;20185;-71
2023/01/29 09:20:14;;;;;;;60.27;29.40;;;2.60;99.90;;;;;;4927298;29;20190;-70
2023/01/29 09:22:39;;;;;;;51.87;28.73;;;2.50;99.90;;;;;;4925437;29;20450;-71
2023/01/29 09:25:06;;;;;;;58.10;28.43;;;2.60;99.90;;;;;;4923933;29;20468;-71
2023/01/29 09:27:31;;;;;;;50.77;26.57;;;2.60;99.90;;;;;;4921979;29;20198;-70
2023/01/29 09:29:57;;;;;;;54.60;26.27;;;2.80;99.90;;;;;;4920474;29;21166;-72
2023/01/29 09:32:22;;;;;;;53.47;29.97;;;2.80;99.90;;;;;;4918304;29;20235;-69
2023/01/29 09:34:48;;;;;;;55.10;28.07;;;2.80;99.90;;;;;;4918904;29;20193;-71
2023/01/29 09:37:16;;;;;;;58.80;25.53;;;2.80;99.90;;;;;;4920309;29;20282;-72
2023/01/29 09:39:42;;;;;;;54.07;27.93;;;2.80;99.90;;;;;;4922106;29;20556;-70
2023/01/29 09:42:08;;;;;;;60.07;29.00;;;2.90;99.90;;;;;;4929269;29;20896;-70
2023/01/29 09:44:55;;;;;;;55.17;28.47;;;2.80;99.90;;;;;;4928987;29;20535;-72
2023/01/29 09:47:24;;;;;;;62.83;30.10;;;2.80;99.90;;;;;;4927268;29;20649;-70
2023/01/29 09:50:23;;;;;;;50.97;26.60;;;2.90;99.90;;;;;;4928403;29;20446;-69
2023/01/29 09:52:52;;;;;;;47.37;25.70;;;2.90;99.90;;;;;;4929358;29;20886;-70
2023/01/29 09:55:22;;;;;;;47.57;26.87;;;2.90;99.90;;;;;;4926460;29;20454;-71
2023/01/29 09:58:02;;;;;;;48.90;25.73;;;2.90;99.90;;;;;;4922066;29;20438;-71
2023/01/29 10:00:49;;;;;;;48.53;26.97;;;3.00;99.90;;;;;;4932273;29;20506;-71
2023/01/29 10:03:35;;;;;;;49.87;24.00;;;3.10;99.90;;;;;;4934475;29;20430;-71
2023/01/29 10:06:14;;;;;;;58.80;28.47;;;3.10;99.90;;;;;;4930186;29;20937;-72
2023/01/29 10:08:51;;;;;;;54.63;27.40;;;3.00;99.90;;;;;;4925378;29;21017;-72
2023/01/29 10:11:26;;;;;;;54.10;26.80;;;2.90;99.90;;;;;;4930263;29;20435;-73
2023/01/29 10:14:07;;;;;;;50.57;26.30;;;2.70;99.90;;;;;;4925740;29;20437;-72
2023/01/29 10:17:07;;;;;;;58.17;28.80;;;2.80;99.90;;;;;;4924176;29;20432;-73
2023/01/29 10:19:57;;;;;;;58.27;28.67;;;2.90;99.90;;;;;;4921436;29;20500;-72
2023/01/29 10:22:49;;;;;;;55.03;26.60;;;2.80;99.90;;;;;;4928966;29;20957;-73
2023/01/29 10:25:16;;;;;;;51.93;26.47;;;2.70;99.90;;;;;;4932313;29;20449;-73
2023/01/29 10:27:50;;;;;;;58.20;26.90;;;2.60;99.90;;;;;;4917070;29;20598;-73
2023/01/29 10:30:30;;;;;;;54.03;27.50;;;2.70;99.90;;;;;;4933043;29;20439;-71
2023/01/29 10:33:01;;;;;;;50.23;25.60;;;2.80;99.90;;;;;;4930765;29;20552;-72
2023/01/29 10:35:40;;;;;;;51.33;25.77;;;2.90;99.90;;;;;;4929157;29;20447;-72
2023/01/29 10:38:25;;;;;;;56.83;28.50;;;3.00;99.90;;;;;;4926381;29;20441;-73
2023/01/29 10:40:56;;;;;;;51.27;25.40;;;2.90;99.90;;;;;;4925383;29;20444;-72
2023/01/29 10:43:46;;;;;;;46.00;25.30;;;2.90;99.90;;;;;;4924772;29;20526;-72
2023/01/29 10:46:34;;;;;;;54.70;26.87;;;3.00;99.90;;;;;;4921142;29;20450;-72
2023/01/29 10:49:40;;;;;;;51.40;28.20;;;2.90;99.90;;;;;;4919282;29;20460;-70
2023/01/29 10:52:33;;;;;;;58.57;28.30;;;2.90;99.90;;;;;;4931025;29;20473;-71
2023/01/29 10:55:31;;;;;;;57.53;26.80;;;3.00;99.90;;;;;;4922647;29;20427;-71
2023/01/29 10:58:52;;;;;;;53.20;27.93;;;2.90;99.90;;;;;;4931887;29;20446;-71
2023/01/29 11:01:17;;;;;;;56.03;27.93;;;3.00;99.90;;;;;;4855466;29;20447;-70
2023/01/29 11:03:43;;;;;;;49.33;26.67;;;3.10;99.90;;;;;;4921174;29;20447;-70
2023/01/29 11:06:19;;;;;;;51.83;27.90;;;3.20;99.90;;;;;;4922152;29;20285;-70
2023/01/29 11:09:12;;;;;;;49.00;26.57;;;3.20;99.90;;;;;;4923656;29;20189;-71
2023/01/29 11:12:19;;;;;;;56.03;28.10;;;3.10;99.90;;;;;;4926307;29;20936;-70
2023/01/29 11:14:54;;;;;;;48.37;23.40;;;3.20;99.90;;;;;;4852277;29;20544;-71
2023/01/29 11:17:22;;;;;;;50.90;26.17;;;3.30;99.90;;;;;;4846520;29;20475;-71
2023/01/29 11:19:50;;;;;;;57.57;26.83;;;3.30;99.90;;;;;;4884103;29;20444;-71
2023/01/29 11:22:18;;;;;;;51.60;24.90;;;3.30;99.90;;;;;;4917090;29;20442;-72
2023/01/29 11:24:45;;;;;;;48.47;26.10;;;3.30;99.90;;;;;;4933711;29;20802;-71
2023/01/29 11:27:25;;;;;;;55.80;26.63;;;3.40;99.90;;;;;;4930406;29;20819;-70
2023/01/29 11:29:52;;;;;;;44.90;25.00;;;3.40;99.90;;;;;;4929883;29;20844;-68
2023/01/29 11:32:17;;;;;;;56.70;29.37;;;3.40;99.90;;;;;;4927775;29;20573;-69
2023/01/29 11:35:14;;;;;;;50.97;27.47;;;3.50;99.90;;;;;;4926200;29;20840;-68
2023/01/29 11:37:43;;;;;;;48.20;25.03;;;3.40;99.90;;;;;;4925823;29;20180;-68
2023/01/29 11:40:17;;;;;;;51.73;27.37;;;3.40;99.90;;;;;;4927284;29;20432;-68
2023/01/29 11:42:44;;;;;;;54.20;27.57;;;3.50;99.90;;;;;;4920950;29;20433;-68
2023/01/29 11:45:21;;;;;;;49.50;27.17;;;3.50;99.90;;;;;;4919249;29;20468;-69
2023/01/29 11:47:53;;;;;;;55.40;26.83;;;3.60;99.90;;;;;;4917533;29;20525;-69
2023/01/29 11:50:25;;;;;;;64.00;30.10;;;3.50;99.90;;;;;;4916524;29;20427;-69
2023/01/29 11:52:51;;;;;;;68.23;29.03;;;3.50;99.90;;;;;;4918476;29;20514;-69
2023/01/29 11:55:22;;;;;;;52.33;25.63;;;3.50;99.90;;;;;;4930159;29;20843;-69
2023/01/29 11:58:10;;;;;;;49.77;26.80;;;3.50;99.90;;;;;;4931256;29;20491;-69
2023/01/29 12:00:39;;;;;;;49.73;24.60;;;3.40;99.90;;;;;;4917683;29;20438;-68
2023/01/29 12:03:13;;;;;;;53.00;26.17;;;3.40;99.90;;;;;;4931864;29;20885;-68
2023/01/29 12:05:41;;;;;;;51.57;26.30;;;3.50;99.90;;;;;;4932726;29;20465;-69
2023/01/29 12:08:16;;;;;;;50.60;26.50;;;3.30;99.90;;;;;;4932523;29;20446;-68
2023/01/29 12:10:42;;;;;;;49.13;27.70;;;3.40;99.90;;;;;;4930510;29;20441;-68
2023/01/29 12:13:23;;;;;;;47.13;26.47;;;3.40;99.90;;;;;;4931435;29;20479;-68
2023/01/29 12:15:48;;;;;;;53.43;28.40;;;3.50;99.90;;;;;;4921927;29;20919;-68
2023/01/29 12:18:42;;;;;;;48.20;24.73;;;3.50;99.90;;;;;;4915840;29;20446;-68
2023/01/29 12:21:25;;;;;;;50.67;25.17;;;3.60;99.90;;;;;;4931665;29;20179;-68
2023/01/29 12:23:54;;;;;;;46.87;26.93;;;3.60;99.90;;;;;;4924692;29;20448;-68
2023/01/29 12:26:47;;;;;;;51.23;25.80;;;3.50;99.90;;;;;;4928180;29;20506;-68
2023/01/29 12:29:38;;;;;;;52.13;24.67;;;3.50;99.90;;;;;;4926778;29;20437;-68
2023/01/29 12:32:07;;;;;;;46.90;24.90;;;3.60;99.90;;;;;;4928707;29;20477;-68
2023/01/29 12:34:54;;;;;;;44.93;24.77;;;3.50;99.90;;;;;;4927959;29;20447;-68
2023/01/29 12:37:34;;;;;;;52.60;27.60;;;3.50;99.90;;;;;;4932155;29;20439;-68
2023/01/29 12:40:00;;;;;;;49.87;26.47;;;3.60;99.90;;;;;;4922248;29;20792;-68
2023/01/29 12:42:26;;;;;;;52.30;26.30;;;3.60;99.90;;;;;;4920486;29;20446;-68
2023/01/29 12:45:03;;;;;;;46.40;23.73;;;3.70;99.90;;;;;;4919038;29;20450;-68
2023/01/29 12:47:34;;;;;;;47.03;23.90;;;3.70;99.90;;;;;;4935612;29;20250;-68
2023/01/29 12:50:13;;;;;;;47.47;24.93;;;3.70;99.90;;;;;;4933785;29;20505;-68
2023/01/29 12:52:52;;;;;;;43.73;23.30;;;3.80;99.90;;;;;;4931917;29;20491;-68
2023/01/29 12:55:38;;;;;;;43.67;24.33;;;3.70;99.90;;;;;;4925817;29;20786;-68
2023/01/29 12:58:14;;;;;;;49.10;24.63;;;3.70;99.90;;;;;;4927876;29;20457;-68
2023/01/29 13:00:43;;;;;;;46.00;24.63;;;3.70;99.90;;;;;;4928422;29;20523;-68
2023/01/29 13:03:44;;;;;;;49.70;26.93;;;3.80;99.90;;;;;;4924579;29;20830;-68
2023/01/29 13:06:19;;;;;;;41.13;24.03;;;3.60;99.90;;;;;;4922646;29;20779;-68
2023/01/29 13:08:50;;;;;;;40.87;23.23;;;3.60;99.90;;;;;;4934822;29;20488;-68
2023/01/29 13:11:24;;;;;;;47.37;24.10;;;3.60;99.90;;;;;;4918883;29;20525;-68
2023/01/29 13:14:04;;;;;;;45.00;24.97;;;3.70;99.90;;;;;;4919276;29;20803;-68
2023/01/29 13:16:37;;;;;;;42.80;23.57;;;3.90;99.90;;;;;;4921183;29;20929;-68
2023/01/29 13:19:13;;;;;;;42.60;24.77;;;3.80;99.90;;;;;;4927256;29;20450;-68
2023/01/29 13:21:42;;;;;;;44.60;24.87;;;3.90;99.90;;;;;;4934587;29;20449;-68
2023/01/29 13:24:19;;;;;;;48.77;24.37;;;4.00;99.90;;;;;;4935246;29;20460;-68
2023/01/29 13:26:46;;;;;;;47.17;25.57;;;4.00;99.90;;;;;;4934114;29;20434;-69
2023/01/29 13:29:22;;;;;;;42.07;24.03;;;3.90;99.90;;;;;;4935502;29;20528;-68
2023/01/29 13:31:49;;;;;;;36.73;21.80;;;3.90;99.90;;;;;;4922980;29;20944;-68
2023/01/29 13:34:32;;;;;;;43.63;21.03;;;3.90;99.90;;;;;;4921183;29;20809;-69
2023/01/29 13:37:01;;;;;;;45.43;24.23;;;4.00;99.90;;;;;;4932513;29;20446;-68
2023/01/29 13:39:43;;;;;;;37.50;21.03;;;4.20;99.90;;;;;;4927245;29;20859;-68
2023/01/29 13:42:18;;;;;;;44.00;23.30;;;4.20;99.90;;;;;;4914593;29;20449;-68
2023/01/29 13:45:00;;;;;;;41.17;21.07;;;4.30;99.90;;;;;;4933056;29;20447;-69
2023/01/29 13:47:32;;;;;;;40.20;23.50;;;4.30;99.90;;;;;;4930935;29;20525;-68
2023/01/29 13:50:05;;;;;;;38.77;22.07;;;4.30;99.90;;;;;;4924567;29;20554;-68
2023/01/29 13:52:34;;;;;;;46.83;24.33;;;4.30;99.90;;;;;;4926323;29;21025;-68
2023/01/29 13:55:04;;;;;;;39.57;20.80;;;4.40;99.90;;;;;;4928120;29;20951;-69
2023/01/29 13:57:45;;;;;;;40.30;22.33;;;4.40;99.90;;;;;;4930080;29;20434;-68
2023/01/29 14:00:19;;;;;;;38.77;22.27;;;4.40;99.90;;;;;;4918500;29;20805;-68
2023/01/29 14:02:46;;;;;;;46.70;22.27;;;4.40;99.90;;;;;;4932513;29;20432;-69
2023/01/29 14:05:29;;;;;;;39.13;20.07;;;4.40;99.90;;;;;;4929081;29;20942;-69
2023/01/29 14:08:05;;;;;;;36.07;20.13;;;4.50;99.90;;;;;;4929330;29;20431;-68
2023/01/29 14:10:32;;;;;;;33.57;19.23;;;4.50;99.90;;;;;;4932150;29;20984;-68
2023/01/29 14:13:03;;;;;;;37.27;21.97;;;4.50;99.90;;;;;;4932534;29;20909;-68
2023/01/29 14:15:34;;;;;;;34.83;19.10;;;4.50;99.90;;;;;;4929633;29;20761;-68
2023/01/29 14:18:19;;;;;;;37.67;19.07;;;4.50;99.90;;;;;;4924659;29;20521;-69
2023/01/29 14:21:22;;;;;;;33.00;18.83;;;4.50;99.90;;;;;;4926018;29;20466;-69
2023/01/29 14:24:18;;;;;;;32.93;18.70;;;4.40;99.90;;;;;;4930392;29;20447;-69
2023/01/29 14:26:47;;;;;;;37.20;21.23;;;4.40;99.90;;;;;;4931205;29;20878;-68
2023/01/29 14:29:15;;;;;;;33.90;18.87;;;4.40;99.90;;;;;;4931775;29;20482;-69
2023/01/29 14:31:42;;;;;;;28.90;18.07;;;4.40;99.90;;;;;;4928819;29;20921;-68
2023/01/29 14:34:28;;;;;;;28.53;18.50;;;4.40;99.90;;;;;;4929046;29;20450;-70
2023/01/29 14:37:01;;;;;;;39.10;20.70;;;4.40;99.90;;;;;;4929643;29;20435;-70
2023/01/29 14:39:32;;;;;;;34.50;17.87;;;4.40;99.90;;;;;;4930617;29;20463;-69
2023/01/29 14:42:01;;;;;;;40.40;19.00;;;4.40;99.90;;;;;;4933267;29;20443;-69
2023/01/29 14:44:45;;;;;;;32.97;17.60;;;4.50;99.90;;;;;;4933407;29;20442;-71
2023/01/29 14:47:21;;;;;;;29.80;16.20;;;4.40;99.90;;;;;;4928525;29;20853;-69
2023/01/29 14:49:57;;;;;;;34.60;17.27;;;4.40;99.90;;;;;;4934210;29;20524;-69
2023/01/29 14:52:41;;;;;;;31.13;17.00;;;4.40;99.90;;;;;;4931240;29;20469;-70
2023/01/29 14:55:25;;;;;;;29.33;17.47;;;4.30;99.90;;;;;;4929949;29;21004;-70
2023/01/29 14:57:54;;;;;;;28.87;16.70;;;4.30;99.90;;;;;;4926162;29;20487;-69
2023/01/29 15:00:29;;;;;;;33.60;17.80;;;4.30;99.90;;;;;;4916315;29;20441;-70
2023/01/29 15:02:56;;;;;;;32.70;16.50;;;4.20;99.90;;;;;;4916594;29;20518;-69
2023/01/29 15:05:29;;;;;;;28.37;17.63;;;4.20;99.90;;;;;;4918687;29;20784;-68
2023/01/29 15:08:03;;;;;;;31.97;16.53;;;4.20;99.90;;;;;;4920342;29;20462;-68
2023/01/29 15:11:32;;;;;;;31.47;17.07;;;4.20;99.90;;;;;;4926250;29;20447;-69
2023/01/29 15:13:52;;;;;;;27.80;16.50;;;4.20;99.90;;;;;;4929559;29;20478;-70
2023/01/29 15:16:29;;;;;;;29.10;15.77;;;4.30;99.90;;;;;;4924793;29;20449;-71
2023/01/29 15:19:04;;;;;;;31.80;16.27;;;4.30;99.90;;;;;;4921910;29;20486;-70
2023/01/29 15:21:30;;;;;;;31.10;16.27;;;4.30;99.90;;;;;;4928366;29;20433;-70